Terminal Aerodrome Forecast
Issued by NWS

Home | Current Version | Previous Version | Text Only | Print | Product List | Glossary On
Versions: 1 2 3 4 5 6 7 8 9 10 11 12 13 14 15 16 17 18 19 20 21
000
FTAK31 PANC 260831 AAA
TAFACD
TAF AMD
PACD 260831Z 2609/2706 VRB03KT P6SM SCT005 BKN025
      TEMPO 2609/2612 BKN005
     FM261200 VRB03KT P6SM FEW010 BKN020
     FM261500 VRB04KT P6SM -SHRA SCT005 BKN015
     FM270000 VRB05KT P6SM SCT015 BKN030=

USA.gov is the U.S. government's official web portal to all federal, state and local government web resources and services.